Time;durP1;ratioP1;P1;durP2;ratioP2;P2;SDS_P1;SDS_P2;PMS_P1;PMS_P2;Temp;Humidity;BMP_temperature;BMP_pressure;BME280_temperature;BME280_humidity;BME280_pressure;Samples;Min_cycle;Max_cycle;Signal;HPM_P1;HPM_P2
2022/09/13 00:01:05;;;;;;;3.57;3.30;;;14.10;99.90;;;;;;4976882;28;20640;-83
2022/09/13 00:03:31;;;;;;;3.20;3.00;;;14.10;99.90;;;;;;4983864;28;20635;-83
2022/09/13 00:06:00;;;;;;;3.47;3.07;;;14.10;99.90;;;;;;4975981;28;21198;-83
2022/09/13 00:08:28;;;;;;;4.17;3.13;;;14.10;99.90;;;;;;4972183;28;20666;-83
2022/09/13 00:10:55;;;;;;;3.57;3.27;;;14.10;99.90;;;;;;4975984;28;20637;-83
2022/09/13 00:13:22;;;;;;;4.93;2.83;;;14.00;99.90;;;;;;4978857;28;20751;-83
2022/09/13 00:15:50;;;;;;;3.73;3.10;;;14.10;99.90;;;;;;4978560;28;20724;-83
2022/09/13 00:18:18;;;;;;;3.50;3.30;;;14.10;99.90;;;;;;4974111;28;20671;-83
2022/09/13 00:20:45;;;;;;;5.17;3.67;;;14.00;99.90;;;;;;4976440;28;20648;-83
2022/09/13 00:23:12;;;;;;;4.03;2.90;;;14.00;99.90;;;;;;4977748;28;20636;-83
2022/09/13 00:25:41;;;;;;;4.67;3.00;;;14.00;99.90;;;;;;4974848;28;20629;-83
2022/09/13 00:28:08;;;;;;;3.13;2.93;;;13.90;99.90;;;;;;4973502;28;20647;-83
2022/09/13 00:30:35;;;;;;;3.03;2.80;;;13.90;99.90;;;;;;4982540;28;20998;-83
2022/09/13 00:33:03;;;;;;;3.60;3.30;;;13.90;99.90;;;;;;4975550;28;20990;-83
2022/09/13 00:35:30;;;;;;;3.40;3.20;;;14.00;99.90;;;;;;4974864;28;20644;-83
2022/09/13 00:37:58;;;;;;;3.13;2.93;;;14.00;99.90;;;;;;4975930;28;20685;-83
2022/09/13 00:40:25;;;;;;;4.73;3.67;;;13.90;99.90;;;;;;4975272;28;20637;-83
2022/09/13 00:42:53;;;;;;;3.23;3.03;;;13.90;99.90;;;;;;4974793;28;20655;-84
2022/09/13 00:45:20;;;;;;;3.67;3.47;;;13.90;99.90;;;;;;4981600;28;20649;-83
2022/09/13 00:47:51;;;;;;;3.97;3.00;;;13.80;99.90;;;;;;4981416;28;20660;-84
2022/09/13 00:50:22;;;;;;;4.03;3.73;;;13.90;99.90;;;;;;4972259;28;20624;-84
2022/09/13 00:52:53;;;;;;;3.93;3.33;;;13.80;99.90;;;;;;4975995;28;20630;-84
2022/09/13 00:55:24;;;;;;;3.77;3.47;;;13.90;99.90;;;;;;4979335;28;20635;-83
2022/09/13 00:57:53;;;;;;;3.73;3.47;;;13.80;99.90;;;;;;4975356;28;20692;-83
2022/09/13 01:00:21;;;;;;;3.83;3.53;;;13.80;99.90;;;;;;4972448;28;20663;-83
2022/09/13 01:02:51;;;;;;;8.80;3.53;;;13.80;99.90;;;;;;4982427;28;21399;-83
2022/09/13 01:05:22;;;;;;;3.83;3.10;;;13.90;99.90;;;;;;4970220;28;21208;-83
2022/09/13 01:07:49;;;;;;;3.90;3.60;;;13.90;99.90;;;;;;4985272;28;20648;-83
2022/09/13 01:10:16;;;;;;;4.50;3.73;;;13.90;99.90;;;;;;4984196;28;20648;-83
2022/09/13 01:12:52;;;;;;;4.47;4.17;;;13.80;99.90;;;;;;4980277;28;20640;-84
2022/09/13 01:15:20;;;;;;;3.83;3.53;;;13.80;99.90;;;;;;4975417;28;21202;-84
2022/09/13 01:17:47;;;;;;;4.10;3.80;;;13.80;99.90;;;;;;4984418;28;20681;-84
2022/09/13 01:20:14;;;;;;;4.20;3.90;;;13.80;99.90;;;;;;4973201;28;20652;-83
2022/09/13 01:23:17;;;;;;;3.90;3.57;;;13.80;99.90;;;;;;4979707;28;20636;-83
2022/09/13 01:26:35;;;;;;;3.60;3.07;;;13.80;99.90;;;;;;4977144;28;20636;-83
2022/09/13 01:29:21;;;;;;;4.13;3.87;;;13.70;99.90;;;;;;4980415;28;20675;-83
2022/09/13 01:31:56;;;;;;;3.50;3.20;;;13.70;99.90;;;;;;4985053;28;20628;-83
2022/09/13 01:34:35;;;;;;;3.70;3.40;;;13.80;99.90;;;;;;4974374;28;20620;-82
2022/09/13 01:37:16;;;;;;;4.27;3.97;;;13.70;99.90;;;;;;4979436;28;20634;-82
2022/09/13 01:40:02;;;;;;;4.27;3.87;;;13.70;99.90;;;;;;4979077;28;20701;-83
2022/09/13 01:42:41;;;;;;;3.90;3.63;;;13.70;99.90;;;;;;4978990;28;20620;-83
2022/09/13 01:45:19;;;;;;;3.83;3.53;;;13.70;99.90;;;;;;4978681;28;20616;-84
2022/09/13 01:47:53;;;;;;;4.10;3.80;;;13.70;99.90;;;;;;4975581;28;20998;-83
2022/09/13 01:50:25;;;;;;;3.70;3.33;;;13.60;99.90;;;;;;4975423;28;20620;-83
2022/09/13 01:52:56;;;;;;;3.67;3.47;;;13.70;99.90;;;;;;4977522;28;21087;-83
2022/09/13 01:55:32;;;;;;;3.93;3.63;;;13.60;99.90;;;;;;4981057;28;20648;-83
2022/09/13 01:58:07;;;;;;;3.80;3.50;;;13.60;99.90;;;;;;4984539;28;21243;-83
2022/09/13 02:00:38;;;;;;;5.70;3.57;;;13.60;99.90;;;;;;4977656;28;21232;-83
2022/09/13 02:03:12;;;;;;;4.47;2.90;;;13.60;99.90;;;;;;4976935;28;20616;-83
2022/09/13 02:05:43;;;;;;;4.10;3.70;;;13.60;99.90;;;;;;4974759;28;21295;-83
2022/09/13 02:08:15;;;;;;;4.13;3.80;;;13.60;99.90;;;;;;4986236;28;20647;-83
2022/09/13 02:10:45;;;;;;;3.67;3.43;;;13.50;99.90;;;;;;4978965;28;20617;-84
2022/09/13 02:13:17;;;;;;;9.00;3.40;;;13.60;99.90;;;;;;4979244;28;20644;-83
2022/09/13 02:15:47;;;;;;;3.63;3.33;;;13.60;99.90;;;;;;4980946;28;20633;-83
2022/09/13 02:18:19;;;;;;;4.00;3.60;;;13.50;99.90;;;;;;4988605;28;21136;-83
2022/09/13 02:20:50;;;;;;;4.23;3.90;;;13.50;99.90;;;;;;4973356;28;20637;-84
2022/09/13 02:23:20;;;;;;;4.33;3.90;;;13.40;99.90;;;;;;4973758;28;20635;-83
2022/09/13 02:25:51;;;;;;;3.90;3.53;;;13.40;99.90;;;;;;4977967;28;20633;-83
2022/09/13 02:28:26;;;;;;;3.40;3.20;;;13.40;99.90;;;;;;4976739;28;20673;-84
2022/09/13 02:30:54;;;;;;;4.43;4.00;;;13.40;99.90;;;;;;4984144;28;20640;-83
2022/09/13 02:33:26;;;;;;;4.00;3.70;;;13.30;99.90;;;;;;4976791;28;20629;-83
2022/09/13 02:35:58;;;;;;;4.40;4.10;;;13.30;99.90;;;;;;4971117;28;20622;-83
2022/09/13 02:38:30;;;;;;;4.10;3.80;;;13.30;99.90;;;;;;4982854;28;20683;-83
2022/09/13 02:41:04;;;;;;;4.17;3.90;;;13.30;99.90;;;;;;4983499;28;20644;-84
2022/09/13 02:43:36;;;;;;;4.73;3.73;;;13.30;99.90;;;;;;4975541;28;20625;-83
2022/09/13 02:46:20;;;;;;;4.00;3.67;;;13.20;99.90;;;;;;4977203;28;20999;-83
2022/09/13 02:48:57;;;;;;;4.10;3.70;;;13.20;99.90;;;;;;4985431;28;20684;-83
2022/09/13 02:51:31;;;;;;;3.67;2.93;;;13.20;99.90;;;;;;4973812;28;20613;-83
2022/09/13 02:54:09;;;;;;;4.27;3.87;;;13.20;99.90;;;;;;4979448;28;20725;-83
2022/09/13 02:56:48;;;;;;;3.90;3.60;;;13.10;99.90;;;;;;4979697;28;20671;-84
2022/09/13 02:59:17;;;;;;;4.00;3.30;;;13.10;99.90;;;;;;4974657;28;20655;-83
2022/09/13 03:01:47;;;;;;;4.27;3.87;;;13.10;99.90;;;;;;4979488;28;20629;-83
2022/09/13 03:04:16;;;;;;;4.30;3.80;;;13.10;99.90;;;;;;4975765;28;20643;-83
2022/09/13 03:06:43;;;;;;;3.73;3.50;;;13.10;99.90;;;;;;4973652;28;20626;-81
2022/09/13 03:09:10;;;;;;;5.77;3.80;;;13.00;99.90;;;;;;4976090;28;20676;-82
2022/09/13 03:11:51;;;;;;;3.67;3.33;;;13.00;99.90;;;;;;4985994;28;20660;-83
2022/09/13 03:14:30;;;;;;;4.33;4.03;;;13.00;99.90;;;;;;4975807;28;20629;-82
2022/09/13 03:17:12;;;;;;;4.97;4.60;;;13.00;99.90;;;;;;4976545;28;20617;-82
2022/09/13 03:20:02;;;;;;;5.23;4.73;;;12.90;99.90;;;;;;4974265;28;20644;-82
2022/09/13 03:23:02;;;;;;;5.50;5.00;;;12.90;99.90;;;;;;4972693;28;20679;-82
2022/09/13 03:25:48;;;;;;;5.30;5.00;;;12.90;99.90;;;;;;4955500;28;20644;-82
2022/09/13 03:28:23;;;;;;;5.57;4.83;;;12.90;99.90;;;;;;4974827;28;20671;-82
2022/09/13 03:30:55;;;;;;;4.70;4.30;;;12.90;99.90;;;;;;4972867;28;20629;-82
2022/09/13 03:33:31;;;;;;;4.63;4.27;;;12.90;99.90;;;;;;4976072;28;20692;-82
2022/09/13 03:36:06;;;;;;;5.20;4.80;;;12.90;99.90;;;;;;4986442;28;20664;-82
2022/09/13 03:38:37;;;;;;;6.10;4.83;;;12.80;99.90;;;;;;4974777;28;20656;-82
2022/09/13 03:41:09;;;;;;;5.53;5.17;;;12.80;99.90;;;;;;4977346;28;20626;-82
2022/09/13 03:43:41;;;;;;;5.67;5.17;;;12.60;99.90;;;;;;4975097;28;21222;-82
2022/09/13 03:46:11;;;;;;;4.80;4.43;;;12.80;99.90;;;;;;4970706;28;20629;-82
2022/09/13 03:48:40;;;;;;;5.00;4.70;;;12.70;99.90;;;;;;4972510;28;21324;-83
2022/09/13 03:51:10;;;;;;;5.23;4.73;;;12.80;99.90;;;;;;4978986;28;20649;-83
2022/09/13 03:53:41;;;;;;;5.63;5.20;;;12.80;99.90;;;;;;4982651;28;20638;-83
2022/09/13 03:56:15;;;;;;;5.50;5.00;;;12.80;99.90;;;;;;4977956;28;21676;-83
2022/09/13 03:58:42;;;;;;;5.63;5.13;;;12.80;99.90;;;;;;4977045;28;20675;-83
2022/09/13 04:01:10;;;;;;;5.10;4.70;;;12.80;99.90;;;;;;4983265;28;21190;-83
2022/09/13 04:03:36;;;;;;;5.10;4.70;;;12.70;99.90;;;;;;4977110;28;20629;-83
2022/09/13 04:06:03;;;;;;;5.40;4.40;;;12.70;99.90;;;;;;4978453;28;20625;-83
2022/09/13 04:08:32;;;;;;;4.50;4.10;;;12.70;99.90;;;;;;4974971;28;20656;-83
2022/09/13 04:10:59;;;;;;;5.20;4.77;;;12.70;99.90;;;;;;4978447;28;20644;-83
2022/09/13 04:13:26;;;;;;;5.00;4.50;;;12.50;99.90;;;;;;4980747;28;20648;-83
2022/09/13 04:15:53;;;;;;;6.00;4.57;;;12.60;99.90;;;;;;4979354;28;20637;-83
2022/09/13 04:18:20;;;;;;;4.70;4.40;;;12.70;99.90;;;;;;4979047;28;20664;-83
2022/09/13 04:20:53;;;;;;;4.10;3.80;;;12.60;99.90;;;;;;4974224;28;20641;-83
2022/09/13 04:23:21;;;;;;;3.90;3.60;;;12.60;99.90;;;;;;4973510;28;20656;-83
2022/09/13 04:25:50;;;;;;;6.60;4.87;;;12.20;99.90;;;;;;4976415;28;21263;-82
2022/09/13 04:28:17;;;;;;;4.00;3.70;;;12.50;99.90;;;;;;4974818;28;21250;-82
2022/09/13 04:30:44;;;;;;;4.93;4.50;;;12.60;99.90;;;;;;4975411;28;20676;-82
2022/09/13 04:33:10;;;;;;;10.63;5.00;;;12.50;99.90;;;;;;4982353;28;21218;-82
2022/09/13 04:35:38;;;;;;;4.80;4.33;;;12.30;99.90;;;;;;4981307;28;20971;-83
2022/09/13 04:38:04;;;;;;;4.97;4.57;;;12.50;99.90;;;;;;4979968;28;20681;-82
2022/09/13 04:40:31;;;;;;;4.50;4.10;;;12.50;99.90;;;;;;4978918;28;20628;-83
2022/09/13 04:43:00;;;;;;;7.40;6.80;;;12.40;99.90;;;;;;4981185;28;20640;-83
2022/09/13 04:45:27;;;;;;;7.60;7.00;;;12.50;99.90;;;;;;4979016;28;21037;-83
2022/09/13 04:47:55;;;;;;;7.70;7.10;;;12.50;99.90;;;;;;4988965;28;20660;-83
2022/09/13 04:50:23;;;;;;;8.53;7.73;;;12.50;99.90;;;;;;4981244;28;20718;-82
2022/09/13 04:52:50;;;;;;;12.07;11.17;;;12.10;99.90;;;;;;4986874;28;20647;-84
2022/09/13 04:55:17;;;;;;;11.17;10.17;;;12.40;99.90;;;;;;4982591;28;20644;-83
2022/09/13 04:57:44;;;;;;;9.70;9.00;;;12.60;99.90;;;;;;4976182;28;20657;-84
2022/09/13 05:00:12;;;;;;;8.47;7.83;;;12.70;99.90;;;;;;4985325;28;20624;-83
2022/09/13 05:02:39;;;;;;;8.93;8.13;;;12.70;99.90;;;;;;4979975;28;21143;-83
2022/09/13 05:05:07;;;;;;;10.40;9.60;;;12.30;99.90;;;;;;4983812;28;20644;-82
2022/09/13 05:07:34;;;;;;;10.13;9.27;;;12.80;99.90;;;;;;4971180;28;21036;-82
2022/09/13 05:10:01;;;;;;;9.20;8.50;;;12.80;99.90;;;;;;4976182;28;20676;-82
2022/09/13 05:12:27;;;;;;;8.00;7.40;;;12.90;99.90;;;;;;4976518;28;20641;-82
2022/09/13 05:14:54;;;;;;;8.80;8.20;;;12.90;99.90;;;;;;4976728;28;20670;-82
2022/09/13 05:17:22;;;;;;;8.80;8.00;;;12.90;99.90;;;;;;4979778;28;20676;-83
2022/09/13 05:19:49;;;;;;;8.53;7.70;;;13.00;99.90;;;;;;4968119;28;20664;-84
2022/09/13 05:22:15;;;;;;;8.40;7.73;;;13.00;99.90;;;;;;4978561;28;20632;-83
2022/09/13 05:24:42;;;;;;;9.07;8.27;;;13.10;99.90;;;;;;4973961;28;20625;-83
2022/09/13 05:27:10;;;;;;;9.47;8.47;;;13.10;99.90;;;;;;4976505;28;20635;-83
2022/09/13 05:29:37;;;;;;;7.70;7.00;;;12.70;99.90;;;;;;4975482;28;20657;-83
2022/09/13 05:32:04;;;;;;;6.80;6.10;;;13.10;99.90;;;;;;4975403;28;20997;-83
2022/09/13 05:34:32;;;;;;;7.53;5.80;;;13.20;99.90;;;;;;4973014;28;20626;-83
2022/09/13 05:36:59;;;;;;;7.63;6.90;;;13.20;99.90;;;;;;4970822;28;20736;-83
2022/09/13 05:39:25;;;;;;;11.50;5.93;;;13.20;99.90;;;;;;4972857;28;20632;-83
2022/09/13 05:41:52;;;;;;;11.60;5.80;;;13.20;99.90;;;;;;4976444;28;20625;-83
2022/09/13 05:44:19;;;;;;;10.90;5.87;;;13.30;99.90;;;;;;4981124;28;20640;-84
2022/09/13 05:46:47;;;;;;;5.90;5.40;;;13.30;99.90;;;;;;4980579;28;20621;-83
2022/09/13 05:49:14;;;;;;;6.70;5.40;;;13.30;99.90;;;;;;4973634;28;20765;-84
2022/09/13 05:51:42;;;;;;;10.90;4.80;;;13.30;99.90;;;;;;4972959;28;20626;-83
2022/09/13 05:54:11;;;;;;;6.53;4.43;;;13.40;99.90;;;;;;4976739;28;20746;-84
2022/09/13 05:56:39;;;;;;;5.37;4.87;;;13.40;99.90;;;;;;4977392;28;20633;-84
2022/09/13 05:59:06;;;;;;;7.53;4.80;;;13.40;99.90;;;;;;4976244;28;20664;-84
2022/09/13 06:01:33;;;;;;;5.10;4.60;;;13.50;99.90;;;;;;4976500;28;20645;-84
2022/09/13 06:04:00;;;;;;;5.23;4.23;;;13.50;99.90;;;;;;4977444;28;20643;-83
2022/09/13 06:06:27;;;;;;;4.70;4.07;;;13.60;99.90;;;;;;4973047;28;20990;-83
2022/09/13 06:08:56;;;;;;;4.70;4.30;;;13.60;99.90;;;;;;4975022;28;20739;-83
2022/09/13 06:11:25;;;;;;;4.40;4.03;;;13.60;99.90;;;;;;4976207;28;20640;-83
2022/09/13 06:13:52;;;;;;;8.83;5.73;;;13.70;99.90;;;;;;4971576;28;20637;-83
2022/09/13 06:16:19;;;;;;;4.97;4.53;;;13.80;99.90;;;;;;4975441;28;20683;-83
2022/09/13 06:18:46;;;;;;;4.97;4.50;;;13.80;99.90;;;;;;4977081;28;20657;-83
2022/09/13 06:21:16;;;;;;;5.63;4.37;;;13.80;99.90;;;;;;4974506;28;20631;-84
2022/09/13 06:23:43;;;;;;;4.70;3.73;;;13.90;99.90;;;;;;4972091;28;20969;-83
2022/09/13 06:26:14;;;;;;;4.60;4.10;;;14.00;99.90;;;;;;4961157;28;20654;-83
2022/09/13 06:28:41;;;;;;;5.33;4.27;;;14.10;99.90;;;;;;4957934;28;21019;-84
2022/09/13 06:31:10;;;;;;;5.20;4.70;;;14.20;99.90;;;;;;4959096;28;20789;-81
2022/09/13 06:33:38;;;;;;;6.23;3.90;;;14.30;99.90;;;;;;4958803;28;20638;-84
2022/09/13 06:36:07;;;;;;;4.57;4.10;;;14.20;99.90;;;;;;4957866;28;20663;-83
2022/09/13 06:38:35;;;;;;;6.83;4.67;;;14.30;99.90;;;;;;4959092;28;20653;-83
2022/09/13 06:41:03;;;;;;;5.40;4.90;;;14.30;99.90;;;;;;4959042;28;20630;-84
2022/09/13 06:43:31;;;;;;;5.30;4.10;;;14.40;99.90;;;;;;4959039;28;20656;-84
2022/09/13 06:46:02;;;;;;;5.27;4.77;;;14.30;99.90;;;;;;4959052;28;20641;-83
2022/09/13 06:48:32;;;;;;;7.90;4.53;;;14.40;99.90;;;;;;4960841;28;20676;-83
2022/09/13 06:51:00;;;;;;;8.37;4.00;;;14.40;99.90;;;;;;4961701;28;21276;-83
2022/09/13 06:53:27;;;;;;;5.70;4.10;;;14.40;99.90;;;;;;4964885;28;20657;-83
2022/09/13 06:56:02;;;;;;;4.10;3.70;;;14.50;99.90;;;;;;4961272;28;21180;-83
2022/09/13 06:58:31;;;;;;;4.93;4.53;;;14.60;99.90;;;;;;4959271;28;20758;-84
2022/09/13 07:01:13;;;;;;;4.90;4.20;;;14.60;99.90;;;;;;4960225;28;20657;-83
2022/09/13 07:03:41;;;;;;;6.17;4.27;;;14.60;99.90;;;;;;4964456;28;20672;-83
2022/09/13 07:06:10;;;;;;;4.40;4.00;;;14.70;99.90;;;;;;4967300;28;20629;-84
2022/09/13 07:08:37;;;;;;;4.87;4.40;;;14.70;99.90;;;;;;4962197;28;20661;-84
2022/09/13 07:11:04;;;;;;;6.50;4.93;;;14.90;99.90;;;;;;4960967;28;20677;-85
2022/09/13 07:13:33;;;;;;;5.10;4.40;;;14.90;99.90;;;;;;4960590;28;20653;-85
2022/09/13 07:16:03;;;;;;;6.07;5.40;;;15.00;99.90;;;;;;4958577;28;20653;-85
2022/09/13 07:18:30;;;;;;;9.07;5.73;;;15.10;99.90;;;;;;4960226;28;20693;-84
2022/09/13 07:21:00;;;;;;;4.83;4.43;;;15.10;99.90;;;;;;4961359;28;20635;-85
2022/09/13 07:23:27;;;;;;;7.20;4.90;;;15.30;99.90;;;;;;4973223;28;20700;-84
2022/09/13 07:25:55;;;;;;;6.50;5.20;;;15.30;99.90;;;;;;4963638;28;20676;-84
2022/09/13 07:28:21;;;;;;;4.93;4.30;;;15.40;99.90;;;;;;4961252;28;20653;-84
2022/09/13 07:30:50;;;;;;;7.37;4.50;;;15.40;99.90;;;;;;4961341;28;20684;-84
2022/09/13 07:33:16;;;;;;;8.50;4.80;;;15.50;99.90;;;;;;4961756;28;20646;-84
2022/09/13 07:35:43;;;;;;;5.50;4.90;;;15.60;99.90;;;;;;4963832;28;21325;-84
2022/09/13 07:38:10;;;;;;;5.27;4.77;;;15.70;99.90;;;;;;4963127;28;20638;-84
2022/09/13 07:40:37;;;;;;;6.47;4.83;;;15.70;99.90;;;;;;4960183;28;20638;-83
2022/09/13 07:43:04;;;;;;;7.63;4.33;;;15.80;99.90;;;;;;4960860;28;20645;-83
2022/09/13 07:45:31;;;;;;;5.47;4.97;;;15.80;99.90;;;;;;4957852;28;20665;-83
2022/09/13 07:47:59;;;;;;;5.07;4.63;;;15.90;99.90;;;;;;4960324;28;21347;-83
2022/09/13 07:50:25;;;;;;;5.80;5.20;;;16.00;99.90;;;;;;4960445;28;20693;-84
2022/09/13 07:52:52;;;;;;;5.80;3.93;;;16.10;99.90;;;;;;4959823;28;21227;-83
2022/09/13 07:55:19;;;;;;;9.40;4.60;;;16.20;99.90;;;;;;4959464;28;20658;-84
2022/09/13 07:57:46;;;;;;;6.07;4.40;;;16.30;99.90;;;;;;4958831;28;20632;-83
2022/09/13 08:00:14;;;;;;;4.63;3.77;;;16.50;99.90;;;;;;4959189;28;20629;-83
2022/09/13 08:02:41;;;;;;;8.23;3.83;;;16.60;99.90;;;;;;4959799;28;20641;-84
2022/09/13 08:05:09;;;;;;;3.43;3.13;;;16.70;99.90;;;;;;4958729;28;21251;-83
2022/09/13 08:07:35;;;;;;;4.13;3.23;;;16.90;99.90;;;;;;4959985;28;20645;-83
2022/09/13 08:10:02;;;;;;;4.70;3.47;;;17.10;99.90;;;;;;4960198;28;20816;-82
2022/09/13 08:12:29;;;;;;;4.37;3.30;;;17.30;99.90;;;;;;4957663;28;20688;-82
2022/09/13 08:14:56;;;;;;;4.03;3.63;;;17.50;99.90;;;;;;4956309;28;20760;-82
2022/09/13 08:17:23;;;;;;;4.60;3.00;;;17.70;99.90;;;;;;4956373;28;20665;-82
2022/09/13 08:19:50;;;;;;;3.83;2.97;;;17.80;99.90;;;;;;4955821;28;20664;-82
2022/09/13 08:22:18;;;;;;;2.67;2.47;;;18.00;99.90;;;;;;4957621;28;20637;-82
2022/09/13 08:24:45;;;;;;;4.20;3.00;;;18.20;99.90;;;;;;4954412;28;20771;-82
2022/09/13 08:27:12;;;;;;;9.80;2.60;;;18.40;99.90;;;;;;4959271;28;20633;-83
2022/09/13 08:29:39;;;;;;;3.17;2.80;;;18.60;99.90;;;;;;4959164;28;20677;-82
2022/09/13 08:32:06;;;;;;;4.20;2.70;;;18.80;99.90;;;;;;4959500;28;21207;-82
2022/09/13 08:34:32;;;;;;;4.00;2.60;;;18.80;99.90;;;;;;4959095;28;20700;-82
2022/09/13 08:36:59;;;;;;;2.43;2.23;;;18.90;99.90;;;;;;4958758;28;20641;-82
2022/09/13 08:39:27;;;;;;;3.93;2.37;;;18.90;99.90;;;;;;4959439;28;20641;-82
2022/09/13 08:42:19;;;;;;;3.40;2.40;;;19.00;99.90;;;;;;4959516;28;20640;-82
2022/09/13 08:44:48;;;;;;;4.77;3.00;;;19.20;99.90;;;;;;4959713;28;20657;-83
2022/09/13 08:47:34;;;;;;;4.10;2.67;;;19.20;99.90;;;;;;4959712;28;20633;-82
2022/09/13 08:50:11;;;;;;;4.77;2.73;;;19.40;99.90;;;;;;4960484;28;20664;-82
2022/09/13 08:52:47;;;;;;;4.17;2.03;;;19.50;99.90;;;;;;4960119;28;20672;-81
2022/09/13 08:55:33;;;;;;;4.03;2.23;;;19.70;99.90;;;;;;4958103;28;20668;-82
2022/09/13 08:58:06;;;;;;;4.70;1.97;;;19.90;99.90;;;;;;4959494;28;20700;-82
2022/09/13 09:00:39;;;;;;;9.63;2.43;;;20.00;99.90;;;;;;4958684;28;20836;-82
2022/09/13 09:03:18;;;;;;;2.60;1.93;;;20.10;99.90;;;;;;4959190;28;20629;-82
2022/09/13 09:05:47;;;;;;;3.33;2.07;;;20.30;99.90;;;;;;4958463;28;20669;-82
2022/09/13 09:08:27;;;;;;;2.17;1.97;;;20.40;99.90;;;;;;4958303;28;20728;-82
2022/09/13 09:10:59;;;;;;;3.53;1.90;;;20.60;99.90;;;;;;4958746;28;21254;-82
2022/09/13 09:13:29;;;;;;;4.10;1.90;;;20.70;99.90;;;;;;4958205;28;20992;-82
2022/09/13 09:16:00;;;;;;;2.17;1.97;;;20.90;99.90;;;;;;4958443;28;20708;-82
2022/09/13 09:18:32;;;;;;;1.93;1.60;;;21.00;99.90;;;;;;4959837;28;21342;-81
2022/09/13 09:21:02;;;;;;;3.30;2.10;;;21.10;99.90;;;;;;4958463;28;20680;-82
2022/09/13 09:23:36;;;;;;;2.17;2.07;;;21.30;99.90;;;;;;4956602;28;20645;-81
2022/09/13 09:26:17;;;;;;;2.23;1.80;;;21.50;99.90;;;;;;4959461;28;20625;-82
2022/09/13 09:28:47;;;;;;;1.67;1.50;;;21.70;99.90;;;;;;4961833;28;20641;-82
2022/09/13 09:31:21;;;;;;;1.90;1.80;;;21.90;99.90;;;;;;4962839;28;21205;-82
2022/09/13 09:34:00;;;;;;;3.27;1.70;;;22.10;99.90;;;;;;4961114;28;20648;-82
2022/09/13 09:36:37;;;;;;;3.00;1.80;;;22.30;99.90;;;;;;4962329;28;20661;-82
2022/09/13 09:39:05;;;;;;;6.97;2.00;;;22.40;99.90;;;;;;4962678;28;20644;-81
2022/09/13 09:41:34;;;;;;;6.43;2.00;;;22.50;99.90;;;;;;4961439;28;21136;-82
2022/09/13 09:44:13;;;;;;;3.73;2.00;;;22.70;99.90;;;;;;4966988;28;20675;-83
2022/09/13 09:46:42;;;;;;;2.30;1.80;;;23.00;99.90;;;;;;4981190;28;20625;-83
2022/09/13 09:51:58;;;;;;;2.63;1.43;;;23.40;99.90;;;;;;4970731;28;20669;-82
2022/09/13 09:54:27;;;;;;;4.13;1.30;;;23.70;99.90;;;;;;4972108;28;20661;-82
2022/09/13 09:56:56;;;;;;;1.97;1.47;;;23.80;99.90;;;;;;4973839;28;20711;-82
2022/09/13 09:59:28;;;;;;;1.40;1.30;;;24.10;98.00;;;;;;4969600;28;20629;-82
2022/09/13 10:01:57;;;;;;;1.37;1.27;;;24.30;97.40;;;;;;4975863;28;20665;-83
2022/09/13 10:04:25;;;;;;;2.33;1.80;;;24.50;96.90;;;;;;4970877;28;20965;-82
2022/09/13 10:07:09;;;;;;;2.70;1.30;;;24.50;97.60;;;;;;4974058;28;20657;-82
2022/09/13 10:09:38;;;;;;;3.47;1.40;;;24.60;97.70;;;;;;4971751;28;21203;-83
2022/09/13 10:12:07;;;;;;;1.33;1.23;;;24.70;95.60;;;;;;4973124;28;20716;-83
2022/09/13 10:14:39;;;;;;;5.97;2.63;;;24.90;95.00;;;;;;4972297;28;21402;-83
2022/09/13 10:17:24;;;;;;;2.03;1.33;;;25.00;95.60;;;;;;4972680;28;20664;-83
2022/09/13 10:19:53;;;;;;;2.60;1.10;;;25.20;94.10;;;;;;4971390;28;20652;-83
2022/09/13 10:22:21;;;;;;;4.07;1.60;;;25.30;92.90;;;;;;4973675;28;20707;-82
2022/09/13 10:24:49;;;;;;;2.27;1.77;;;25.50;93.50;;;;;;4973346;28;20664;-83
2022/09/13 10:27:24;;;;;;;2.93;1.33;;;25.70;92.40;;;;;;4974794;28;20640;-82
2022/09/13 10:29:58;;;;;;;1.60;1.30;;;25.80;91.10;;;;;;4973831;28;20992;-82
2022/09/13 10:32:25;;;;;;;1.60;1.00;;;26.00;90.90;;;;;;4970317;28;20743;-83
2022/09/13 10:34:53;;;;;;;2.47;1.30;;;26.20;88.60;;;;;;4970534;28;22473;-82
2022/09/13 10:37:24;;;;;;;2.10;1.33;;;26.50;85.30;;;;;;4970143;28;20652;-83
2022/09/13 10:39:57;;;;;;;2.30;1.17;;;26.70;74.00;;;;;;4973095;28;20629;-83
2022/09/13 10:42:28;;;;;;;3.13;1.40;;;27.00;75.30;;;;;;4967897;28;21230;-82
2022/09/13 10:44:57;;;;;;;1.10;1.00;;;27.40;71.20;;;;;;4973995;28;20738;-83
2022/09/13 10:47:27;;;;;;;1.70;1.20;;;27.60;70.20;;;;;;4970535;28;20633;-83
2022/09/13 10:49:56;;;;;;;1.20;1.10;;;28.00;68.30;;;;;;4974551;28;20637;-83
2022/09/13 10:52:25;;;;;;;1.83;1.17;;;28.50;65.10;;;;;;4974639;28;20649;-83
2022/09/13 10:54:52;;;;;;;1.27;1.17;;;28.80;62.60;;;;;;4972501;28;20657;-82
2022/09/13 10:57:36;;;;;;;1.30;0.90;;;29.00;59.30;;;;;;4970338;28;20633;-82
2022/09/13 11:00:06;;;;;;;1.20;1.10;;;29.00;57.80;;;;;;4970578;28;20989;-83
2022/09/13 11:02:49;;;;;;;3.13;1.03;;;29.30;56.80;;;;;;4975867;28;20624;-83
2022/09/13 11:05:23;;;;;;;3.83;1.47;;;29.40;56.20;;;;;;4971598;28;21230;-82
2022/09/13 11:08:13;;;;;;;1.10;0.93;;;29.60;55.30;;;;;;4968951;28;21123;-82
2022/09/13 11:10:54;;;;;;;3.60;3.47;;;29.80;53.90;;;;;;4971321;28;20621;-83
2022/09/13 11:13:34;;;;;;;4.67;3.10;;;30.10;52.40;;;;;;4969536;28;20724;-83
2022/09/13 11:16:13;;;;;;;4.73;4.33;;;30.30;52.90;;;;;;4970961;28;20644;-83
2022/09/13 11:18:59;;;;;;;3.93;2.87;;;30.80;52.60;;;;;;4970839;28;20621;-83
2022/09/13 11:21:39;;;;;;;1.50;1.40;;;31.30;49.30;;;;;;4965277;28;20657;-82
2022/09/13 11:24:27;;;;;;;1.80;1.17;;;31.70;48.60;;;;;;4973870;28;20660;-82
2022/09/13 11:27:03;;;;;;;1.10;1.00;;;31.80;46.90;;;;;;4965819;28;20637;-82
2022/09/13 11:29:45;;;;;;;3.40;2.10;;;31.70;46.00;;;;;;4972946;28;20631;-83
2022/09/13 11:32:28;;;;;;;0.90;0.90;;;31.30;45.90;;;;;;4974873;28;21027;-83
2022/09/13 11:35:12;;;;;;;1.07;0.80;;;31.20;45.40;;;;;;4972769;28;20667;-83
2022/09/13 11:37:45;;;;;;;1.57;0.80;;;31.30;45.70;;;;;;4972137;28;21303;-83
2022/09/13 11:40:31;;;;;;;0.90;0.80;;;31.20;44.70;;;;;;4972190;28;20636;-83
2022/09/13 11:43:06;;;;;;;2.93;1.10;;;31.40;44.60;;;;;;4976740;28;20625;-82
2022/09/13 11:45:40;;;;;;;1.03;0.90;;;31.40;44.10;;;;;;4974793;28;20644;-83
2022/09/13 11:48:38;;;;;;;1.30;1.03;;;31.60;44.00;;;;;;4977031;28;21165;-82
2022/09/13 11:51:15;;;;;;;3.97;0.90;;;31.80;44.50;;;;;;4974663;28;20688;-82
2022/09/13 11:54:05;;;;;;;1.10;1.00;;;32.00;45.30;;;;;;4972692;28;20643;-83
2022/09/13 11:56:35;;;;;;;2.03;1.00;;;31.90;43.00;;;;;;4969702;28;21593;-83
2022/09/13 11:59:17;;;;;;;1.43;1.00;;;31.80;43.40;;;;;;4976163;28;20639;-83
2022/09/13 12:01:51;;;;;;;0.90;0.80;;;32.10;43.00;;;;;;4975514;28;20620;-83
2022/09/13 12:04:22;;;;;;;3.00;1.00;;;32.40;43.20;;;;;;4973486;28;20628;-83
2022/09/13 12:06:55;;;;;;;1.30;1.20;;;32.70;41.70;;;;;;4979874;28;20632;-84
2022/09/13 12:09:28;;;;;;;1.10;1.00;;;32.80;40.40;;;;;;4973475;28;20640;-83
2022/09/13 12:11:59;;;;;;;1.23;0.90;;;33.00;39.90;;;;;;4979820;28;20669;-83
2022/09/13 12:14:30;;;;;;;1.33;0.70;;;33.00;39.20;;;;;;4980180;28;21181;-83
2022/09/13 12:17:04;;;;;;;1.20;0.60;;;33.10;36.40;;;;;;4977797;28;20636;-83
2022/09/13 12:19:40;;;;;;;0.90;0.80;;;33.30;36.00;;;;;;4979238;28;20675;-83
2022/09/13 12:22:08;;;;;;;0.80;0.57;;;33.60;35.90;;;;;;4976656;28;21011;-85
2022/09/13 12:24:42;;;;;;;2.30;0.73;;;33.80;33.70;;;;;;4978348;28;20624;-84
2022/09/13 12:27:17;;;;;;;3.20;0.73;;;34.10;33.00;;;;;;4981543;28;21070;-84
2022/09/13 12:29:50;;;;;;;1.90;0.87;;;34.30;32.10;;;;;;4973076;28;20651;-84
2022/09/13 12:32:19;;;;;;;0.90;0.50;;;34.20;32.00;;;;;;4963972;28;20661;-84
2022/09/13 12:34:50;;;;;;;0.90;0.50;;;34.50;29.60;;;;;;4964981;28;20624;-84
2022/09/13 12:37:31;;;;;;;0.60;0.50;;;34.70;31.30;;;;;;4969561;28;20946;-83
2022/09/13 12:40:34;;;;;;;1.20;0.50;;;34.70;32.40;;;;;;4969072;28;20652;-84
2022/09/13 12:43:26;;;;;;;1.03;0.53;;;34.50;28.30;;;;;;4972256;28;20224;-86
2022/09/13 12:46:07;;;;;;;0.50;0.40;;;34.50;27.00;;;;;;4972076;28;20601;-84
2022/09/13 12:48:57;;;;;;;1.53;0.50;;;34.60;26.90;;;;;;4969676;28;20624;-85
2022/09/13 12:51:38;;;;;;;0.60;0.40;;;34.60;28.50;;;;;;4973482;28;20778;-85
2022/09/13 12:54:37;;;;;;;1.00;0.60;;;35.00;27.30;;;;;;4973045;28;20732;-84
2022/09/13 12:57:23;;;;;;;0.93;0.50;;;35.50;28.50;;;;;;4974403;28;20672;-84
2022/09/13 13:00:11;;;;;;;2.33;0.60;;;35.90;27.90;;;;;;4968963;28;20240;-84
2022/09/13 13:02:44;;;;;;;0.87;0.80;;;36.20;27.40;;;;;;4973984;28;20201;-85
2022/09/13 13:05:27;;;;;;;2.28;0.80;;;36.30;28.00;;;;;;4974015;28;20209;-84
2022/09/13 13:07:56;;;;;;;3.77;1.20;;;36.60;29.20;;;;;;4974959;28;20205;-83
2022/09/13 13:10:30;;;;;;;1.33;0.65;;;36.60;29.00;;;;;;4975580;28;20233;-85
2022/09/13 13:13:09;;;;;;;0.73;0.73;;;36.40;28.70;;;;;;4976176;28;20683;-84